Time;durP1;ratioP1;P1;durP2;ratioP2;P2;SDS_P1;SDS_P2;PMS_P1;PMS_P2;Temp;Humidity;BMP_temperature;BMP_pressure;BME280_temperature;BME280_humidity;BME280_pressure;Samples;Min_cycle;Max_cycle;Signal;HPM_P1;HPM_P2
2023/12/10 00:00:22;;;;;;;14.27;3.75;;;11.10;68.20;;;;;;4988208;28;20069;-84
2023/12/10 00:02:48;;;;;;;22.23;4.10;;;11.10;68.20;;;;;;4987228;28;20086;-82
2023/12/10 00:05:14;;;;;;;17.95;4.28;;;11.10;68.80;;;;;;4988810;28;20501;-84
2023/12/10 00:07:40;;;;;;;15.73;3.53;;;11.10;68.30;;;;;;4985643;28;20045;-83
2023/12/10 00:10:10;;;;;;;17.52;4.45;;;11.10;68.30;;;;;;4986073;28;20126;-82
2023/12/10 00:12:36;;;;;;;13.88;2.53;;;11.10;68.40;;;;;;4983732;28;20027;-84
2023/12/10 00:15:03;;;;;;;19.63;5.32;;;11.10;68.40;;;;;;4999087;28;20630;-82
2023/12/10 00:17:30;;;;;;;13.63;3.08;;;11.10;68.40;;;;;;5012285;28;20018;-85
2023/12/10 00:19:57;;;;;;;11.73;2.85;;;11.10;68.50;;;;;;5010209;28;20027;-83
2023/12/10 00:22:23;;;;;;;17.27;3.17;;;11.10;68.50;;;;;;5010887;28;20085;-81
2023/12/10 00:24:49;;;;;;;12.05;3.67;;;11.10;68.50;;;;;;5010073;28;20038;-83
2023/12/10 00:27:17;;;;;;;14.30;4.03;;;11.10;68.60;;;;;;5011887;28;20034;-83
2023/12/10 00:29:44;;;;;;;15.50;3.47;;;11.00;68.40;;;;;;5002403;28;20387;-83
2023/12/10 00:32:10;;;;;;;15.15;4.90;;;11.10;68.60;;;;;;4996942;28;20623;-84
2023/12/10 00:34:36;;;;;;;15.88;3.55;;;11.00;68.50;;;;;;4980482;28;20453;-83
2023/12/10 00:37:03;;;;;;;14.55;3.30;;;11.10;68.70;;;;;;4997521;28;20027;-84
2023/12/10 00:39:29;;;;;;;13.77;3.15;;;11.00;68.50;;;;;;4998494;28;20042;-84
2023/12/10 00:41:58;;;;;;;16.17;3.50;;;11.00;68.60;;;;;;5002196;28;20018;-85
2023/12/10 00:44:26;;;;;;;12.52;2.92;;;11.00;68.60;;;;;;4990891;28;20034;-85
2023/12/10 00:46:54;;;;;;;20.38;4.60;;;11.10;68.80;;;;;;4963904;28;20026;-84
2023/12/10 00:49:21;;;;;;;12.30;4.20;;;11.00;68.70;;;;;;5003311;28;20042;-83
2023/12/10 00:51:48;;;;;;;16.80;3.80;;;11.00;68.70;;;;;;4970862;28;20093;-84
2023/12/10 00:54:15;;;;;;;13.82;3.72;;;11.00;68.70;;;;;;4988073;28;20038;-86
2023/12/10 00:56:43;;;;;;;24.58;5.95;;;11.00;68.70;;;;;;4990897;28;20033;-85
2023/12/10 00:59:12;;;;;;;16.88;4.85;;;11.00;68.70;;;;;;4988093;28;20038;-84
2023/12/10 01:01:38;;;;;;;18.88;3.05;;;11.00;68.80;;;;;;4954955;28;20035;-84
2023/12/10 01:04:09;;;;;;;12.90;3.13;;;11.00;68.80;;;;;;4991918;28;20076;-84
2023/12/10 01:06:36;;;;;;;13.88;2.78;;;11.00;68.90;;;;;;4985586;28;20073;-85
2023/12/10 01:09:02;;;;;;;12.40;4.57;;;11.00;68.90;;;;;;4971419;28;20030;-84
2023/12/10 01:11:31;;;;;;;14.20;3.85;;;10.90;68.80;;;;;;4974702;28;20545;-84
2023/12/10 01:13:58;;;;;;;11.10;2.80;;;10.90;68.80;;;;;;4988680;28;20381;-84
2023/12/10 01:16:26;;;;;;;12.30;3.15;;;10.90;68.80;;;;;;4987029;28;20085;-84
2023/12/10 01:18:55;;;;;;;17.77;3.50;;;10.90;68.90;;;;;;4988490;28;20030;-85
2023/12/10 01:21:22;;;;;;;12.95;3.63;;;10.90;68.90;;;;;;4986440;28;20030;-84
2023/12/10 01:23:50;;;;;;;9.65;3.00;;;10.90;68.90;;;;;;4987823;28;20117;-83
2023/12/10 01:26:16;;;;;;;15.02;3.53;;;10.90;69.00;;;;;;4984897;28;20369;-84
2023/12/10 01:28:43;;;;;;;17.35;5.05;;;10.90;69.00;;;;;;4969404;28;20129;-84
2023/12/10 01:31:10;;;;;;;17.42;4.07;;;10.90;69.10;;;;;;4987926;28;20034;-85
2023/12/10 01:33:36;;;;;;;13.05;3.03;;;10.90;69.10;;;;;;4971319;28;20061;-83
2023/12/10 01:36:02;;;;;;;17.65;3.30;;;10.90;69.20;;;;;;4970715;28;20038;-85
2023/12/10 01:38:28;;;;;;;15.43;3.50;;;10.90;69.20;;;;;;4988644;28;20038;-84
2023/12/10 01:40:54;;;;;;;17.35;3.08;;;10.90;69.70;;;;;;4983859;28;20361;-86
2023/12/10 01:43:23;;;;;;;15.25;4.10;;;10.90;69.20;;;;;;4987057;28;20405;-82
2023/12/10 01:45:52;;;;;;;12.15;3.38;;;10.90;69.30;;;;;;4990389;28;20031;-83
2023/12/10 01:48:20;;;;;;;17.63;3.00;;;10.90;69.30;;;;;;4989471;28;20030;-82
2023/12/10 01:50:46;;;;;;;15.65;3.50;;;10.90;69.40;;;;;;4969820;28;20066;-83
2023/12/10 01:53:14;;;;;;;14.75;3.03;;;10.90;69.40;;;;;;4989390;28;20129;-83
2023/12/10 01:55:42;;;;;;;12.90;3.45;;;10.90;69.40;;;;;;4988611;28;20038;-83
2023/12/10 01:58:09;;;;;;;15.68;3.25;;;10.80;69.30;;;;;;4972269;28;20034;-83
2023/12/10 02:00:38;;;;;;;11.27;2.90;;;10.80;69.30;;;;;;4981885;28;20266;-84
2023/12/10 02:03:08;;;;;;;12.38;2.88;;;10.90;69.60;;;;;;4970756;28;20046;-83
2023/12/10 02:05:37;;;;;;;12.35;3.03;;;10.80;69.40;;;;;;4977173;28;20036;-83
2023/12/10 02:08:06;;;;;;;10.85;2.97;;;10.80;69.50;;;;;;4969699;28;20049;-83
2023/12/10 02:10:32;;;;;;;14.93;2.63;;;10.80;69.50;;;;;;4989219;28;20038;-85
2023/12/10 02:12:59;;;;;;;12.13;2.35;;;10.80;69.50;;;;;;4989601;28;20081;-85
2023/12/10 02:15:29;;;;;;;10.52;2.78;;;10.80;69.50;;;;;;4987045;28;20041;-85
2023/12/10 02:17:56;;;;;;;9.65;2.35;;;10.80;69.60;;;;;;4994040;28;20035;-85
2023/12/10 02:20:23;;;;;;;18.52;2.50;;;10.80;69.60;;;;;;4992264;28;20041;-85
2023/12/10 02:23:09;;;;;;;9.13;2.25;;;10.80;69.60;;;;;;4994241;28;20430;-89
2023/12/10 02:25:38;;;;;;;8.52;2.30;;;10.80;69.60;;;;;;4974698;28;20030;-84
2023/12/10 02:28:06;;;;;;;8.85;2.30;;;10.80;69.60;;;;;;4974741;28;20037;-84
2023/12/10 02:30:33;;;;;;;12.38;2.65;;;10.70;69.40;;;;;;4990592;28;20101;-84
2023/12/10 02:32:59;;;;;;;10.65;2.13;;;10.70;69.50;;;;;;4975588;28;20086;-85
2023/12/10 02:35:26;;;;;;;13.73;2.50;;;10.70;69.50;;;;;;4989754;28;20064;-86
2023/12/10 02:37:53;;;;;;;8.57;2.33;;;10.70;69.50;;;;;;4991098;28;20278;-85
2023/12/10 02:40:19;;;;;;;11.23;2.28;;;10.70;69.50;;;;;;4988317;28;20563;-87
2023/12/10 02:42:47;;;;;;;9.30;2.45;;;10.60;69.40;;;;;;4987920;28;20110;-87
2023/12/10 02:45:14;;;;;;;4.93;1.67;;;10.60;69.40;;;;;;4985728;28;20442;-83
2023/12/10 02:47:41;;;;;;;6.97;2.00;;;10.60;69.40;;;;;;4990325;28;20515;-86
2023/12/10 02:50:10;;;;;;;9.65;2.95;;;10.60;69.50;;;;;;4991255;28;20037;-87
2023/12/10 02:52:36;;;;;;;7.78;2.25;;;10.60;69.50;;;;;;5007543;28;20035;-85
2023/12/10 02:55:06;;;;;;;6.10;1.98;;;10.60;69.50;;;;;;4989522;28;20467;-86
2023/12/10 02:57:33;;;;;;;10.10;2.28;;;10.60;69.50;;;;;;5006480;28;20050;-85
2023/12/10 02:59:59;;;;;;;8.75;2.00;;;10.60;69.50;;;;;;4990926;28;20040;-84
2023/12/10 03:02:25;;;;;;;11.55;2.22;;;10.60;69.50;;;;;;5009436;28;20034;-86
2023/12/10 03:04:51;;;;;;;10.00;2.25;;;10.50;69.30;;;;;;5017343;28;20124;-86
2023/12/10 03:07:17;;;;;;;8.23;1.90;;;10.50;69.40;;;;;;5005955;28;20411;-85
2023/12/10 03:09:45;;;;;;;13.82;3.50;;;10.50;69.40;;;;;;5010565;28;20045;-84
2023/12/10 03:12:11;;;;;;;7.22;1.88;;;10.50;69.40;;;;;;5010152;28;20037;-84
2023/12/10 03:14:37;;;;;;;8.27;2.03;;;10.50;69.40;;;;;;5010680;28;20037;-85
2023/12/10 03:17:04;;;;;;;7.13;2.15;;;10.50;69.40;;;;;;5012235;28;20042;-88
2023/12/10 03:19:30;;;;;;;9.25;2.50;;;10.50;69.40;;;;;;5016084;28;20037;-86
2023/12/10 03:21:56;;;;;;;8.00;1.60;;;10.40;69.30;;;;;;5018068;28;20036;-87
2023/12/10 03:24:22;;;;;;;11.75;2.53;;;10.40;69.30;;;;;;5014494;28;20502;-85
2023/12/10 03:26:48;;;;;;;8.45;1.85;;;10.40;69.30;;;;;;5005796;28;20421;-86
2023/12/10 03:29:14;;;;;;;11.90;2.15;;;10.40;69.30;;;;;;5001331;28;20058;-86
2023/12/10 03:31:40;;;;;;;11.65;2.75;;;10.40;69.40;;;;;;5012147;28;20026;-87
2023/12/10 03:34:06;;;;;;;10.55;2.17;;;10.40;69.40;;;;;;5011677;28;20505;-90
2023/12/10 03:36:34;;;;;;;10.07;2.05;;;10.40;69.40;;;;;;5006686;28;20022;-86
2023/12/10 03:39:02;;;;;;;7.25;2.17;;;10.40;69.40;;;;;;5008519;28;20069;-86
2023/12/10 03:41:31;;;;;;;6.72;1.95;;;10.40;69.50;;;;;;5006197;28;20033;-89
2023/12/10 03:43:58;;;;;;;9.63;2.33;;;10.40;69.50;;;;;;4992809;28;20088;-87
2023/12/10 03:46:24;;;;;;;6.05;2.05;;;10.40;69.50;;;;;;5011012;28;20030;-88
2023/12/10 03:48:51;;;;;;;9.52;2.20;;;10.40;69.50;;;;;;5015567;28;20539;-87
2023/12/10 03:51:17;;;;;;;10.35;2.63;;;10.40;69.50;;;;;;5007670;28;20132;-89
2023/12/10 03:53:46;;;;;;;5.32;1.83;;;10.40;69.50;;;;;;5014666;28;20053;-88
2023/12/10 03:56:12;;;;;;;7.18;1.50;;;10.40;69.50;;;;;;5014984;28;20045;-87
2023/12/10 03:58:38;;;;;;;8.35;2.85;;;10.40;69.50;;;;;;5018098;28;20101;-90
2023/12/10 04:01:06;;;;;;;8.95;1.80;;;10.40;69.60;;;;;;5014459;28;20301;-89
2023/12/10 04:03:32;;;;;;;8.30;2.05;;;10.40;69.60;;;;;;5017501;28;20400;-87
2023/12/10 04:06:00;;;;;;;6.60;1.38;;;10.40;69.60;;;;;;5014984;28;20022;-87
2023/12/10 04:08:26;;;;;;;9.25;1.88;;;10.40;69.70;;;;;;4997624;28;20038;-88
2023/12/10 04:10:53;;;;;;;10.50;1.67;;;10.40;69.70;;;;;;5015405;28;20124;-88
2023/12/10 04:13:19;;;;;;;11.73;2.45;;;10.40;69.70;;;;;;4996005;28;20500;-87
2023/12/10 04:15:48;;;;;;;9.82;2.03;;;10.40;69.80;;;;;;4980069;28;20034;-89
2023/12/10 04:18:16;;;;;;;10.60;2.00;;;10.40;69.70;;;;;;4998568;28;20049;-87
2023/12/10 04:20:43;;;;;;;11.40;2.95;;;10.40;69.70;;;;;;4997971;28;20026;-86
2023/12/10 04:23:15;;;;;;;13.68;2.80;;;10.40;69.70;;;;;;4981440;28;20511;-88
2023/12/10 04:25:43;;;;;;;7.68;2.30;;;10.40;69.70;;;;;;5017155;28;20057;-86
2023/12/10 04:28:09;;;;;;;8.95;2.40;;;10.40;69.70;;;;;;5015878;28;20103;-87
2023/12/10 04:30:35;;;;;;;10.57;3.17;;;10.40;69.70;;;;;;5012543;28;20101;-86
2023/12/10 04:33:04;;;;;;;7.50;1.80;;;10.40;69.70;;;;;;5013744;28;20037;-86
2023/12/10 04:35:30;;;;;;;9.38;2.20;;;10.40;69.70;;;;;;5011682;28;20037;-89
2023/12/10 04:37:56;;;;;;;7.72;2.30;;;10.40;69.70;;;;;;5014563;28;20037;-86
2023/12/10 04:40:27;;;;;;;12.95;2.08;;;10.40;69.80;;;;;;5002781;28;20041;-87
2023/12/10 04:42:54;;;;;;;7.85;1.48;;;10.30;69.60;;;;;;5016226;28;20074;-85
2023/12/10 04:45:22;;;;;;;10.35;2.75;;;10.40;69.80;;;;;;5008392;28;20045;-87
2023/12/10 04:47:50;;;;;;;11.07;3.20;;;10.30;69.70;;;;;;5025783;28;20014;-88
2023/12/10 04:50:18;;;;;;;8.48;1.90;;;10.30;69.80;;;;;;5016129;28;20237;-86
2023/12/10 04:52:44;;;;;;;16.10;3.25;;;10.30;69.80;;;;;;5015030;28;20105;-87
2023/12/10 04:55:16;;;;;;;10.88;2.63;;;10.30;69.80;;;;;;4999975;28;20042;-86
2023/12/10 04:57:43;;;;;;;10.98;2.20;;;10.30;69.90;;;;;;4980766;28;20045;-88
2023/12/10 05:00:10;;;;;;;9.05;2.40;;;10.30;69.90;;;;;;4993787;28;20030;-88
2023/12/10 05:02:37;;;;;;;10.95;1.90;;;10.30;69.90;;;;;;4994570;28;20045;-87
2023/12/10 05:05:07;;;;;;;8.88;2.10;;;10.30;70.20;;;;;;4990248;28;20250;-88
2023/12/10 05:07:33;;;;;;;10.25;2.28;;;10.30;70.00;;;;;;4957711;28;20038;-89
2023/12/10 05:10:01;;;;;;;7.93;2.55;;;10.30;70.50;;;;;;4995092;28;20026;-91
2023/12/10 05:12:31;;;;;;;13.23;2.70;;;10.40;70.20;;;;;;4994746;28;20073;-89
2023/12/10 05:14:57;;;;;;;8.65;3.50;;;10.30;70.10;;;;;;4994339;28;20027;-90
2023/12/10 05:17:24;;;;;;;9.25;1.92;;;10.30;70.10;;;;;;4996476;28;20423;-89
2023/12/10 05:19:52;;;;;;;20.02;3.10;;;10.30;70.10;;;;;;4993246;28;20065;-90
2023/12/10 05:22:20;;;;;;;14.35;3.85;;;10.40;70.30;;;;;;4992058;28;20097;-91
2023/12/10 05:24:51;;;;;;;10.23;2.67;;;10.40;70.30;;;;;;4977056;28;20101;-91
2023/12/10 05:27:17;;;;;;;10.35;2.40;;;10.40;70.30;;;;;;4982915;28;20403;-90
2023/12/10 05:29:43;;;;;;;10.43;2.05;;;10.40;70.30;;;;;;4982588;28;20093;-91
2023/12/10 05:32:11;;;;;;;9.45;2.35;;;10.30;70.20;;;;;;4979621;28;20026;-88
2023/12/10 05:34:37;;;;;;;13.15;2.83;;;10.40;70.40;;;;;;4984578;28;20026;-90
2023/12/10 05:37:09;;;;;;;10.73;2.40;;;10.40;70.40;;;;;;4992399;28;20034;-87
2023/12/10 05:39:35;;;;;;;14.32;2.80;;;10.40;70.50;;;;;;4988733;28;20503;-89
2023/12/10 05:42:01;;;;;;;9.63;3.00;;;10.40;70.50;;;;;;4991555;28;20325;-88
2023/12/10 05:44:27;;;;;;;14.35;3.05;;;10.40;70.50;;;;;;5001463;28;20133;-89
2023/12/10 05:46:54;;;;;;;13.60;2.95;;;10.40;70.60;;;;;;4959836;28;20400;-87
2023/12/10 05:49:22;;;;;;;11.63;3.10;;;10.40;70.60;;;;;;4988255;28;20027;-86
2023/12/10 05:51:49;;;;;;;17.95;3.70;;;10.40;70.60;;;;;;4990493;28;20038;-86
2023/12/10 05:54:15;;;;;;;13.70;3.10;;;10.40;70.60;;;;;;4969284;28;20068;-86
2023/12/10 05:56:42;;;;;;;16.10;3.72;;;10.40;70.70;;;;;;4991052;28;20086;-86
2023/12/10 05:59:09;;;;;;;13.18;3.25;;;10.40;70.70;;;;;;4990990;28;20038;-86
2023/12/10 06:01:36;;;;;;;15.15;4.35;;;10.40;70.70;;;;;;4974760;28;20035;-88
2023/12/10 06:04:03;;;;;;;14.00;4.38;;;10.40;70.70;;;;;;4991407;28;20046;-89
2023/12/10 06:06:34;;;;;;;15.82;4.05;;;10.40;70.70;;;;;;4989245;28;20122;-87
2023/12/10 06:09:02;;;;;;;20.02;4.90;;;10.40;70.70;;;;;;4994165;28;20500;-87
2023/12/10 06:11:30;;;;;;;18.48;3.75;;;10.40;70.80;;;;;;4991559;28;20041;-87
2023/12/10 06:13:56;;;;;;;15.00;3.38;;;10.40;70.80;;;;;;4992659;28;20026;-86
2023/12/10 06:16:22;;;;;;;18.13;3.97;;;10.40;70.80;;;;;;4955952;28;20045;-86
2023/12/10 06:18:51;;;;;;;14.68;3.45;;;10.40;70.80;;;;;;4972148;28;20090;-89
2023/12/10 06:21:19;;;;;;;16.80;3.95;;;10.40;70.80;;;;;;4987048;28;20093;-89
2023/12/10 06:23:48;;;;;;;21.02;4.97;;;10.40;70.90;;;;;;4990630;28;20389;-89
2023/12/10 06:26:13;;;;;;;15.20;3.20;;;10.40;71.00;;;;;;4973445;28;20045;-90
2023/12/10 06:28:39;;;;;;;18.27;3.63;;;10.40;71.00;;;;;;4963280;28;20046;-90
2023/12/10 06:31:07;;;;;;;18.40;3.85;;;10.40;71.00;;;;;;4990892;28;20129;-90
2023/12/10 06:33:34;;;;;;;22.75;5.13;;;10.30;70.80;;;;;;4988650;28;20022;-90
2023/12/10 06:36:00;;;;;;;15.75;4.22;;;10.40;71.00;;;;;;4972496;28;20090;-89
2023/12/10 06:38:29;;;;;;;16.13;3.95;;;10.30;70.80;;;;;;4940087;28;20342;-90
2023/12/10 06:40:59;;;;;;;22.17;4.50;;;10.30;70.80;;;;;;4992299;28;20049;-90
2023/12/10 06:43:30;;;;;;;19.55;4.80;;;10.30;70.90;;;;;;4972788;28;20042;-90
2023/12/10 06:46:00;;;;;;;18.85;3.80;;;10.30;71.40;;;;;;4988318;28;20031;-92
2023/12/10 06:48:26;;;;;;;21.63;4.15;;;10.30;70.90;;;;;;4992649;28;20030;-92
2023/12/10 06:50:53;;;;;;;16.52;5.28;;;10.20;70.70;;;;;;4993801;28;20054;-89
2023/12/10 06:53:23;;;;;;;17.35;3.75;;;10.20;70.70;;;;;;4989029;28;20101;-92
2023/12/10 06:55:50;;;;;;;25.88;4.82;;;10.20;70.80;;;;;;4993080;28;20032;-91
2023/12/10 06:58:20;;;;;;;13.18;3.80;;;10.20;70.80;;;;;;4970448;28;20042;-89
2023/12/10 07:00:46;;;;;;;19.50;5.07;;;10.10;70.70;;;;;;4988191;28;20034;-90
2023/12/10 07:03:15;;;;;;;16.40;3.30;;;10.10;70.70;;;;;;4990139;28;20512;-92
2023/12/10 07:05:45;;;;;;;13.38;3.80;;;10.10;70.70;;;;;;5013773;28;20164;-92
2023/12/10 07:08:10;;;;;;;15.45;4.75;;;10.10;70.80;;;;;;4995817;28;20049;-93
2023/12/10 07:10:40;;;;;;;16.75;4.25;;;10.10;70.80;;;;;;4975972;28;20026;-92
2023/12/10 07:13:06;;;;;;;15.40;5.18;;;10.00;70.70;;;;;;4998835;28;20088;-89
2023/12/10 07:15:34;;;;;;;16.02;4.45;;;10.10;70.90;;;;;;4995905;28;20030;-89
2023/12/10 07:18:01;;;;;;;15.23;4.53;;;10.00;70.80;;;;;;4993196;28;20496;-88
2023/12/10 07:20:28;;;;;;;14.02;4.57;;;10.00;70.90;;;;;;4996601;28;20069;-88
2023/12/10 07:22:54;;;;;;;20.23;4.50;;;10.00;70.90;;;;;;4995671;28;20089;-90
2023/12/10 07:25:22;;;;;;;18.15;4.60;;;10.00;71.00;;;;;;4999939;28;20030;-90
2023/12/10 07:27:49;;;;;;;20.13;3.85;;;9.90;70.80;;;;;;5001171;28;20038;-91
2023/12/10 07:30:16;;;;;;;24.65;4.80;;;9.90;70.90;;;;;;4998463;28;20018;-91
2023/12/10 07:32:44;;;;;;;21.98;4.43;;;9.90;70.90;;;;;;4998626;28;20041;-91
2023/12/10 07:35:11;;;;;;;23.33;4.90;;;9.90;71.00;;;;;;5000328;28;20038;-90
2023/12/10 07:37:41;;;;;;;17.48;4.53;;;9.90;71.10;;;;;;4983961;28;20027;-89
2023/12/10 07:40:07;;;;;;;19.95;4.15;;;9.90;71.20;;;;;;5005792;28;20046;-87
2023/12/10 07:42:33;;;;;;;24.10;4.05;;;9.90;71.20;;;;;;4994031;28;20050;-86
2023/12/10 07:45:00;;;;;;;16.00;4.85;;;9.90;71.20;;;;;;4967769;28;20038;-84
2023/12/10 07:47:27;;;;;;;13.95;4.50;;;9.80;71.10;;;;;;4986566;28;20504;-86
2023/12/10 07:49:53;;;;;;;17.17;4.45;;;9.90;71.40;;;;;;5004531;28;20316;-86
2023/12/10 07:52:22;;;;;;;23.13;4.65;;;9.80;71.20;;;;;;5009847;28;20061;-86
2023/12/10 07:54:51;;;;;;;17.27;5.18;;;9.80;71.30;;;;;;4996617;28;20081;-87
2023/12/10 07:57:18;;;;;;;49.97;8.82;;;9.80;71.40;;;;;;4991077;28;20054;-89
2023/12/10 07:59:44;;;;;;;30.17;6.68;;;9.90;72.20;;;;;;4998178;28;20034;-87
2023/12/10 08:02:10;;;;;;;40.60;8.18;;;9.90;72.30;;;;;;5001359;28;20048;-85
2023/12/10 08:04:36;;;;;;;38.55;8.07;;;10.00;72.70;;;;;;5010003;28;20026;-85
2023/12/10 08:07:02;;;;;;;28.90;6.15;;;10.10;73.00;;;;;;5012927;28;20037;-87
2023/12/10 08:09:32;;;;;;;29.55;5.60;;;10.20;73.40;;;;;;5004247;28;20041;-85
2023/12/10 08:11:59;;;;;;;26.17;5.28;;;10.30;73.70;;;;;;5008349;28;20051;-84
2023/12/10 08:14:28;;;;;;;28.67;5.70;;;10.30;74.30;;;;;;5008935;28;20073;-85
2023/12/10 08:16:54;;;;;;;30.00;5.47;;;10.30;73.90;;;;;;5006443;28;20049;-84
2023/12/10 08:19:20;;;;;;;27.83;5.63;;;10.40;74.10;;;;;;5007784;28;20049;-84
2023/12/10 08:21:46;;;;;;;22.70;4.70;;;10.40;74.10;;;;;;4992224;28;20383;-83
2023/12/10 08:24:16;;;;;;;20.77;5.05;;;10.40;74.10;;;;;;4980089;28;20128;-84
2023/12/10 08:26:42;;;;;;;20.10;4.15;;;10.40;74.10;;;;;;4982640;28;20033;-84
2023/12/10 08:29:11;;;;;;;24.27;5.47;;;10.40;74.10;;;;;;4983455;28;20042;-84
2023/12/10 08:31:38;;;;;;;24.48;4.68;;;10.40;74.10;;;;;;4981462;28;20103;-84
2023/12/10 08:34:04;;;;;;;20.10;4.05;;;10.40;74.10;;;;;;4987168;28;20145;-84
2023/12/10 08:36:29;;;;;;;22.67;4.78;;;10.40;74.10;;;;;;4987951;28;20059;-83
2023/12/10 08:39:04;;;;;;;24.13;4.82;;;10.40;74.10;;;;;;4990133;28;20022;-85
2023/12/10 08:41:33;;;;;;;23.85;5.75;;;10.40;74.10;;;;;;4976341;28;20045;-83
2023/12/10 08:43:59;;;;;;;24.08;4.53;;;10.40;74.10;;;;;;5002654;28;20069;-83
2023/12/10 08:46:28;;;;;;;26.15;4.93;;;10.40;74.00;;;;;;4978224;28;20030;-84
2023/12/10 08:48:55;;;;;;;18.92;5.10;;;10.40;74.00;;;;;;4982891;28;20045;-82
2023/12/10 08:51:21;;;;;;;23.20;4.45;;;10.40;74.00;;;;;;4987352;28;20062;-84
2023/12/10 08:53:47;;;;;;;17.60;4.20;;;10.50;74.20;;;;;;4987171;28;20034;-83
2023/12/10 08:56:13;;;;;;;15.60;3.92;;;10.40;74.00;;;;;;4991898;28;21698;-84
2023/12/10 08:58:46;;;;;;;18.83;4.63;;;10.50;74.20;;;;;;4990764;28;20049;-84
2023/12/10 09:01:12;;;;;;;16.55;3.85;;;10.50;74.20;;;;;;4983819;28;20534;-83
2023/12/10 09:03:42;;;;;;;22.75;4.85;;;10.50;74.10;;;;;;4985225;28;20923;-84
2023/12/10 09:06:11;;;;;;;20.33;5.32;;;10.50;74.20;;;;;;4982000;28;20137;-86
2023/12/10 09:08:39;;;;;;;20.15;4.65;;;10.50;74.10;;;;;;4982234;28;20033;-87
2023/12/10 09:11:06;;;;;;;23.50;4.22;;;10.60;74.30;;;;;;4978420;28;20058;-88
2023/12/10 09:13:35;;;;;;;21.55;4.35;;;10.50;74.10;;;;;;4993270;28;20042;-92
2023/12/10 09:16:09;;;;;;;15.13;3.92;;;10.60;74.30;;;;;;5011996;28;20034;-93
2023/12/10 09:18:38;;;;;;;17.58;3.58;;;10.60;74.60;;;;;;5013677;28;20031;-94
2023/12/10 09:21:07;;;;;;;19.80;3.60;;;10.70;74.90;;;;;;5008561;28;20041;-93
2023/12/10 09:23:36;;;;;;;18.95;4.25;;;10.80;75.20;;;;;;5008784;28;20143;-93
2023/12/10 09:28:54;;;;;;;22.35;4.13;;;10.90;75.50;;;;;;4998899;28;20050;-78
2023/12/10 09:31:24;;;;;;;19.02;4.18;;;10.90;75.40;;;;;;4980958;28;20027;-78
2023/12/10 09:34:03;;;;;;;18.98;5.20;;;11.00;75.60;;;;;;4974301;28;20187;-78
2023/12/10 09:36:31;;;;;;;15.80;4.03;;;11.00;75.60;;;;;;5000646;28;20549;-78
2023/12/10 09:39:04;;;;;;;17.80;4.40;;;11.00;75.60;;;;;;4986824;28;20572;-77
2023/12/10 09:41:31;;;;;;;14.32;3.42;;;11.00;75.60;;;;;;4986915;28;20061;-78
2023/12/10 09:43:59;;;;;;;19.60;4.82;;;11.00;75.70;;;;;;4987582;28;20037;-74
2023/12/10 09:46:32;;;;;;;22.75;4.68;;;11.10;75.90;;;;;;4971570;28;20091;-75
2023/12/10 09:49:02;;;;;;;27.38;5.82;;;11.10;75.90;;;;;;4990468;28;20033;-75
2023/12/10 09:51:30;;;;;;;19.80;5.53;;;11.20;76.00;;;;;;5005444;28;20658;-75
2023/12/10 09:53:58;;;;;;;25.98;4.88;;;11.20;76.10;;;;;;4971590;28;20147;-77
2023/12/10 09:56:26;;;;;;;21.75;5.03;;;11.20;76.10;;;;;;5000676;28;20124;-76
2023/12/10 09:58:53;;;;;;;23.38;5.20;;;11.20;76.10;;;;;;4984089;28;20263;-75
2023/12/10 10:01:26;;;;;;;23.02;6.22;;;11.20;76.10;;;;;;4969754;28;20145;-79
2023/12/10 10:03:55;;;;;;;17.65;5.28;;;11.30;76.20;;;;;;4992673;28;20071;-76
2023/12/10 10:06:22;;;;;;;19.50;5.30;;;11.30;76.20;;;;;;4984871;28;20516;-77
2023/12/10 10:08:48;;;;;;;18.15;4.40;;;11.40;76.40;;;;;;4972147;28;20026;-76
2023/12/10 10:11:14;;;;;;;24.60;5.78;;;11.40;76.40;;;;;;4991209;28;20489;-77
2023/12/10 10:13:51;;;;;;;19.13;5.57;;;11.40;76.40;;;;;;5006569;28;20041;-76
2023/12/10 10:16:17;;;;;;;26.33;6.07;;;11.40;76.50;;;;;;4996072;28;20049;-75
2023/12/10 10:18:47;;;;;;;19.42;5.80;;;11.50;76.60;;;;;;4999334;28;20560;-77
2023/12/10 10:21:13;;;;;;;18.58;6.22;;;11.50;76.70;;;;;;5004839;28;20030;-78
2023/12/10 10:23:41;;;;;;;16.58;4.72;;;11.50;76.70;;;;;;5006075;28;20360;-76
2023/12/10 10:26:07;;;;;;;18.25;5.35;;;11.60;76.90;;;;;;4993869;28;20065;-78
2023/12/10 10:28:35;;;;;;;16.92;4.72;;;11.70;77.10;;;;;;5006320;28;20551;-75
2023/12/10 10:31:02;;;;;;;13.68;4.32;;;11.70;77.10;;;;;;4996167;28;20092;-77
2023/12/10 10:33:28;;;;;;;13.75;4.47;;;11.70;77.10;;;;;;4995894;28;20117;-76
2023/12/10 10:35:55;;;;;;;17.70;5.00;;;11.80;77.30;;;;;;4998035;28;20038;-77
2023/12/10 10:38:21;;;;;;;21.40;4.53;;;11.80;77.30;;;;;;4997304;28;20554;-75
2023/12/10 10:40:50;;;;;;;12.35;4.13;;;11.90;77.40;;;;;;4976122;28;20127;-76
2023/12/10 10:43:17;;;;;;;12.82;3.70;;;11.90;77.40;;;;;;4997123;28;20081;-77
2023/12/10 10:45:44;;;;;;;12.88;4.28;;;12.00;77.40;;;;;;4966006;28;20041;-77
2023/12/10 10:48:12;;;;;;;18.70;4.25;;;12.00;77.40;;;;;;5002875;28;20096;-77
2023/12/10 10:50:39;;;;;;;14.20;3.92;;;12.10;77.50;;;;;;4976560;28;20030;-76
2023/12/10 10:53:07;;;;;;;10.68;3.80;;;12.10;77.40;;;;;;4997711;28;20037;-75
2023/12/10 10:55:33;;;;;;;11.05;3.55;;;12.20;77.50;;;;;;4995544;28;20167;-77
2023/12/10 10:58:39;;;;;;;10.80;3.58;;;12.20;77.50;;;;;;4994078;28;20117;-77
2023/12/10 11:01:05;;;;;;;12.27;3.03;;;12.30;77.60;;;;;;4938600;28;20046;-76
2023/12/10 11:03:31;;;;;;;7.22;2.65;;;12.30;77.40;;;;;;4978289;28;20369;-76
2023/12/10 11:06:09;;;;;;;13.52;3.22;;;12.30;77.40;;;;;;4993448;28;20032;-77
2023/12/10 11:08:36;;;;;;;10.68;3.58;;;12.30;77.40;;;;;;4979279;28;20064;-73
2023/12/10 11:11:02;;;;;;;12.48;3.10;;;12.30;77.30;;;;;;4993910;28;20137;-75
2023/12/10 11:13:47;;;;;;;8.07;2.53;;;12.40;77.50;;;;;;4962681;28;20088;-77
2023/12/10 11:16:14;;;;;;;7.05;2.22;;;12.40;77.50;;;;;;4997620;28;20158;-77
2023/12/10 11:18:51;;;;;;;11.20;2.40;;;12.50;77.60;;;;;;4998108;28;20245;-77
2023/12/10 11:21:18;;;;;;;8.65;2.78;;;12.50;77.50;;;;;;4994203;28;20107;-75
2023/12/10 11:23:44;;;;;;;8.75;1.90;;;12.50;77.50;;;;;;4997405;28;20075;-76
2023/12/10 11:26:11;;;;;;;7.50;2.65;;;12.50;77.50;;;;;;4979693;28;20033;-79
2023/12/10 11:28:37;;;;;;;5.85;1.77;;;12.50;77.40;;;;;;4996868;28;20063;-77
2023/12/10 11:31:04;;;;;;;7.40;1.77;;;12.60;77.60;;;;;;4996816;28;20061;-76
2023/12/10 11:33:31;;;;;;;5.72;1.48;;;12.60;77.50;;;;;;4997659;28;20345;-76
2023/12/10 11:35:57;;;;;;;6.60;2.63;;;12.60;77.50;;;;;;4996603;28;20041;-77
2023/12/10 11:38:23;;;;;;;6.25;2.63;;;12.60;77.40;;;;;;4997853;28;20109;-76
2023/12/10 11:40:50;;;;;;;3.95;1.33;;;12.70;77.60;;;;;;4979761;28;20252;-77
2023/12/10 11:43:15;;;;;;;3.85;1.60;;;12.70;77.50;;;;;;4996495;28;20038;-77
2023/12/10 11:45:42;;;;;;;4.72;1.13;;;12.80;77.60;;;;;;5002393;28;20125;-77
2023/12/10 11:48:08;;;;;;;3.60;1.20;;;12.80;77.60;;;;;;4996569;28;20048;-77
2023/12/10 11:50:36;;;;;;;6.53;2.10;;;12.80;77.50;;;;;;4984116;28;20560;-77
2023/12/10 11:53:02;;;;;;;3.22;1.20;;;12.80;77.50;;;;;;4973963;28;20045;-78
2023/12/10 11:55:30;;;;;;;6.88;1.42;;;12.90;77.60;;;;;;5001538;28;20037;-77
2023/12/10 11:57:57;;;;;;;4.35;1.35;;;12.80;77.50;;;;;;4983614;28;20390;-77
2023/12/10 12:00:26;;;;;;;4.57;1.35;;;12.90;77.60;;;;;;4981743;28;20026;-76
2023/12/10 12:02:53;;;;;;;4.95;1.02;;;12.90;77.60;;;;;;4977130;28;20104;-77
2023/12/10 12:05:20;;;;;;;2.83;0.63;;;12.90;77.60;;;;;;4975913;28;20568;-77
2023/12/10 12:07:48;;;;;;;3.92;1.10;;;12.90;77.60;;;;;;4990378;28;20041;-77
2023/12/10 12:10:17;;;;;;;9.35;1.85;;;12.90;77.70;;;;;;5005707;28;20144;-77
2023/12/10 12:12:45;;;;;;;2.92;0.88;;;13.00;77.90;;;;;;4985864;28;20492;-75
2023/12/10 12:15:13;;;;;;;1.45;0.65;;;13.00;77.90;;;;;;5011986;28;20072;-77
2023/12/10 12:17:41;;;;;;;2.25;1.05;;;13.10;78.10;;;;;;4988298;28;20049;-76
2023/12/10 12:20:13;;;;;;;2.30;0.90;;;13.10;78.00;;;;;;4972370;28;20403;-77
2023/12/10 12:22:40;;;;;;;2.97;1.00;;;13.20;78.20;;;;;;4989042;28;20378;-78
2023/12/10 12:25:06;;;;;;;1.38;0.70;;;13.30;78.20;;;;;;4991062;28;20048;-78
2023/12/10 12:27:32;;;;;;;2.05;0.90;;;13.30;78.10;;;;;;4988127;28;20565;-77
2023/12/10 12:30:00;;;;;;;4.75;1.10;;;13.40;78.20;;;;;;5002687;28;20124;-78
2023/12/10 12:32:26;;;;;;;2.47;1.00;;;13.40;78.10;;;;;;4987359;28;20149;-75
2023/12/10 12:34:52;;;;;;;1.92;0.60;;;13.50;78.30;;;;;;5011142;28;20083;-76
2023/12/10 12:37:19;;;;;;;1.98;0.85;;;13.50;78.30;;;;;;4984185;28;20651;-76
2023/12/10 12:39:46;;;;;;;1.88;0.77;;;13.60;78.40;;;;;;4979639;28;20030;-76
2023/12/10 12:42:17;;;;;;;1.27;0.70;;;13.70;78.60;;;;;;4978681;28;20192;-76
2023/12/10 12:44:43;;;;;;;1.95;0.60;;;13.70;78.60;;;;;;5003066;28;20422;-75